createdAt,value
2022-11-19T00:00:46.163Z,58.64
2022-11-19T00:03:15.171Z,58.63
2022-11-19T00:05:42.777Z,58.61
2022-11-19T00:08:10.345Z,58.70
2022-11-19T00:10:38.043Z,58.85
2022-11-19T00:13:04.632Z,58.67
2022-11-19T00:15:32.313Z,58.73
2022-11-19T00:18:00.411Z,58.69
2022-11-19T00:20:29.364Z,58.65
2022-11-19T00:22:57.862Z,58.73
2022-11-19T00:25:25.956Z,58.74
2022-11-19T00:27:53.559Z,58.96
2022-11-19T00:30:46.345Z,58.61
2022-11-19T00:33:08.716Z,58.70
2022-11-19T00:35:37.661Z,58.64
2022-11-19T00:38:05.242Z,58.67
2022-11-19T00:40:32.890Z,58.79
2022-11-19T00:43:17.932Z,58.72
2022-11-19T00:45:45.523Z,58.86
2022-11-19T00:48:13.059Z,58.76
2022-11-19T00:50:41.947Z,58.73
2022-11-19T00:53:09.536Z,58.73
2022-11-19T00:55:38.719Z,58.90
2022-11-19T00:58:06.277Z,58.81
2022-11-19T01:00:33.845Z,58.71
2022-11-19T01:03:01.398Z,58.86
2022-11-19T01:05:28.955Z,58.74
2022-11-19T01:07:57.909Z,58.80
2022-11-19T01:10:25.465Z,58.77
2022-11-19T01:13:10.412Z,58.76
2022-11-19T01:15:38.007Z,58.76
2022-11-19T01:18:05.624Z,58.75
2022-11-19T01:20:33.282Z,58.87
2022-11-19T01:23:02.231Z,58.83
2022-11-19T01:25:29.801Z,58.84
2022-11-19T01:27:58.285Z,58.75
2022-11-19T01:30:25.914Z,58.88
2022-11-19T01:32:53.539Z,58.72
2022-11-19T01:35:21.111Z,58.75
2022-11-19T01:37:48.684Z,58.75
2022-11-19T01:40:17.604Z,58.73
2022-11-19T01:42:51.133Z,58.94
2022-11-19T01:45:20.675Z,57.40
2022-11-19T01:47:48.300Z,56.80
2022-11-19T01:50:16.063Z,57.11
2022-11-19T01:52:43.671Z,56.86
2022-11-19T01:55:11.296Z,56.87
2022-11-19T01:57:40.648Z,56.64
2022-11-19T02:00:09.334Z,56.39
2022-11-19T02:02:36.975Z,56.40
2022-11-19T02:05:04.732Z,56.21
2022-11-19T02:07:33.061Z,55.92
2022-11-19T02:10:00.875Z,55.82
2022-11-19T02:12:34.116Z,55.85
2022-11-19T02:15:17.015Z,55.93
2022-11-19T02:18:06.260Z,55.60
2022-11-19T02:20:47.728Z,55.85
2022-11-19T02:23:45.768Z,55.46
2022-11-19T02:26:34.816Z,55.36
2022-11-19T02:29:07.287Z,55.56
2022-11-19T02:31:37.859Z,55.36
2022-11-19T02:34:08.908Z,55.31
2022-11-19T02:36:39.005Z,55.21
2022-11-19T02:39:07.767Z,55.38
2022-11-19T02:41:38.610Z,55.29
2022-11-19T02:44:35.571Z,55.25
2022-11-19T02:47:06.635Z,55.40
2022-11-19T02:49:35.163Z,55.34
2022-11-19T02:52:02.708Z,55.31
2022-11-19T02:54:30.271Z,55.32
2022-11-19T02:56:58.810Z,55.09
2022-11-19T02:59:47.704Z,55.24
2022-11-19T03:02:34.190Z,55.36
2022-11-19T03:05:01.753Z,55.27
2022-11-19T03:07:29.311Z,55.36
2022-11-19T03:09:57.650Z,55.16
2022-11-19T03:12:31.791Z,55.08
2022-11-19T03:15:20.785Z,55.24
2022-11-19T03:17:55.000Z,55.10
2022-11-19T03:20:25.046Z,54.89
2022-11-19T03:22:53.570Z,55.23
2022-11-19T03:25:23.560Z,55.09
2022-11-19T03:27:51.763Z,55.00
2022-11-19T03:30:19.822Z,55.10
2022-11-19T03:32:48.827Z,54.97
2022-11-19T03:35:20.088Z,55.06
2022-11-19T03:37:50.577Z,54.96
2022-11-19T03:40:18.226Z,55.02
2022-11-19T03:42:46.204Z,54.95
2022-11-19T03:45:17.292Z,54.90
2022-11-19T03:47:45.060Z,54.81
2022-11-19T03:50:28.945Z,54.99
2022-11-19T03:53:01.279Z,54.76
2022-11-19T03:55:33.399Z,54.77
2022-11-19T03:58:03.751Z,54.88
2022-11-19T04:00:31.371Z,54.66
2022-11-19T04:02:58.983Z,54.77
2022-11-19T04:05:27.861Z,54.41
2022-11-19T04:07:55.469Z,54.58
2022-11-19T04:10:23.135Z,54.44
2022-11-19T04:12:50.724Z,54.47
2022-11-19T04:15:18.358Z,54.52
2022-11-19T04:17:45.902Z,54.39
2022-11-19T04:20:13.627Z,54.52
2022-11-19T04:22:42.867Z,54.47
2022-11-19T04:25:10.747Z,54.21
2022-11-19T04:27:38.333Z,54.35
2022-11-19T04:30:06.863Z,54.41
2022-11-19T04:32:34.538Z,54.42
2022-11-19T04:35:02.108Z,54.10
2022-11-19T04:37:29.652Z,54.31
2022-11-19T04:39:58.573Z,54.00
2022-11-19T04:42:26.125Z,53.95
2022-11-19T04:44:53.745Z,53.80
2022-11-19T04:47:21.349Z,53.66
2022-11-19T04:49:48.916Z,53.99
2022-11-19T04:52:16.481Z,53.97
2022-11-19T04:54:44.072Z,53.85
2022-11-19T04:57:13.184Z,53.66
2022-11-19T04:59:40.742Z,53.56
2022-11-19T05:02:08.335Z,53.65
2022-11-19T05:04:35.891Z,53.69
2022-11-19T05:07:04.322Z,53.59
2022-11-19T05:09:31.954Z,53.59
2022-11-19T05:11:59.522Z,53.47
2022-11-19T05:14:30.574Z,53.49
2022-11-19T05:16:58.342Z,53.29
2022-11-19T05:19:25.982Z,53.26
2022-11-19T05:21:53.574Z,53.41
2022-11-19T05:24:21.149Z,53.32
2022-11-19T05:26:48.712Z,53.24
2022-11-19T05:29:16.377Z,53.09
2022-11-19T05:31:45.373Z,53.03
2022-11-19T05:34:12.931Z,53.12
2022-11-19T05:36:40.561Z,52.95
2022-11-19T05:39:08.574Z,53.05
2022-11-19T05:41:36.159Z,52.97
2022-11-19T05:44:03.839Z,52.95
2022-11-19T05:46:31.388Z,52.99
2022-11-19T05:49:00.718Z,52.82
2022-11-19T05:51:28.283Z,52.79
2022-11-19T05:53:55.950Z,52.85
2022-11-19T05:56:23.627Z,52.78
2022-11-19T05:58:51.388Z,52.68
2022-11-19T06:01:25.716Z,52.76
2022-11-19T06:03:53.555Z,52.76
2022-11-19T06:06:22.907Z,52.47
2022-11-19T06:08:50.568Z,52.64
2022-11-19T06:11:32.039Z,52.60
2022-11-19T06:13:59.603Z,52.59
2022-11-19T06:16:27.752Z,52.42
2022-11-19T06:18:55.374Z,52.49
2022-11-19T06:21:24.276Z,52.35
2022-11-19T06:23:51.863Z,52.43
2022-11-19T06:26:23.320Z,52.43
2022-11-19T06:28:51.006Z,52.34
2022-11-19T06:31:18.576Z,52.49
2022-11-19T06:33:46.208Z,52.53
2022-11-19T06:36:13.797Z,52.45
2022-11-19T06:38:43.033Z,52.34
2022-11-19T06:41:10.719Z,52.35
2022-11-19T06:43:38.403Z,52.42
2022-11-19T06:46:06.359Z,52.15
2022-11-19T06:48:33.918Z,52.49
2022-11-19T06:51:02.445Z,52.22
2022-11-19T06:53:30.288Z,52.36
2022-11-19T06:55:59.286Z,52.40
2022-11-19T06:58:26.858Z,52.33
2022-11-19T07:00:54.423Z,52.29
2022-11-19T07:03:22.084Z,52.18
2022-11-19T07:05:49.780Z,52.08
2022-11-19T07:08:17.494Z,52.11
2022-11-19T07:10:45.089Z,51.92
2022-11-19T07:13:14.133Z,51.90
2022-11-19T07:15:41.683Z,51.90
2022-11-19T07:18:09.236Z,51.80
2022-11-19T07:20:36.897Z,51.89
2022-11-19T07:23:04.604Z,51.85
2022-11-19T07:25:32.357Z,51.70
2022-11-19T07:27:59.931Z,51.86
2022-11-19T07:30:28.988Z,51.82
2022-11-19T07:32:56.594Z,51.80
2022-11-19T07:35:24.171Z,51.87
2022-11-19T07:37:51.765Z,51.83
2022-11-19T07:40:19.448Z,51.80
2022-11-19T07:42:53.063Z,51.90
2022-11-19T07:45:21.783Z,51.74
2022-11-19T07:47:50.718Z,51.73
2022-11-19T07:50:18.615Z,51.75
2022-11-19T07:52:46.181Z,51.66
2022-11-19T07:55:13.756Z,51.67
2022-11-19T07:57:41.316Z,51.60
2022-11-19T08:00:09.880Z,51.64
2022-11-19T08:02:37.419Z,51.57
2022-11-19T08:05:06.840Z,51.57
2022-11-19T08:07:34.462Z,51.52
2022-11-19T08:10:02.031Z,51.57
2022-11-19T08:12:29.919Z,51.80
2022-11-19T08:14:57.524Z,51.85
2022-11-19T08:17:42.572Z,52.19
2022-11-19T08:20:12.214Z,52.38
2022-11-19T08:22:41.878Z,52.66
2022-11-19T08:25:09.550Z,53.04
2022-11-19T08:27:37.221Z,53.58
2022-11-19T08:30:05.387Z,53.87
2022-11-19T08:32:33.009Z,55.49
2022-11-19T08:35:00.551Z,55.22
2022-11-19T08:37:29.488Z,55.38
2022-11-19T08:39:57.067Z,55.86
2022-11-19T08:42:47.444Z,55.66
2022-11-19T08:45:19.596Z,55.96
2022-11-19T08:47:48.414Z,56.10
2022-11-19T08:50:16.657Z,55.69
2022-11-19T08:52:45.536Z,54.75
2022-11-19T08:55:13.380Z,55.20
2022-11-19T08:57:40.993Z,55.88
2022-11-19T09:00:10.377Z,56.25
2022-11-19T09:02:38.028Z,56.39
2022-11-19T09:05:07.876Z,57.12
2022-11-19T09:07:38.294Z,56.68
2022-11-19T09:10:08.458Z,57.15
2022-11-19T09:12:36.160Z,56.98
2022-11-19T09:15:03.860Z,56.88
2022-11-19T09:17:31.404Z,56.63
2022-11-19T09:19:59.031Z,56.68
2022-11-19T09:22:26.570Z,56.51
2022-11-19T09:24:54.149Z,55.99
2022-11-19T09:27:23.112Z,54.17
2022-11-19T09:29:50.684Z,53.61
2022-11-19T09:32:23.934Z,52.99
2022-11-19T09:34:53.166Z,52.74
2022-11-19T09:37:20.801Z,52.38
2022-11-19T09:39:48.399Z,52.10
2022-11-19T09:42:17.346Z,51.87
2022-11-19T09:45:04.064Z,51.39
2022-11-19T09:47:40.448Z,49.73
2022-11-19T09:50:14.442Z,45.85
2022-11-19T09:52:45.549Z,47.67
2022-11-19T09:55:17.489Z,48.04
2022-11-19T09:57:47.305Z,48.13
2022-11-19T10:00:19.240Z,48.17
2022-11-19T10:02:46.915Z,48.54
2022-11-19T10:05:15.441Z,48.86
2022-11-19T10:07:46.464Z,48.85
2022-11-19T10:10:22.283Z,48.98
2022-11-19T10:12:57.644Z,48.85
2022-11-19T10:15:30.857Z,48.86
2022-11-19T10:18:04.016Z,49.03
2022-11-19T10:20:45.323Z,49.04
2022-11-19T10:23:15.259Z,49.31
2022-11-19T10:25:43.962Z,49.21
2022-11-19T10:28:12.893Z,49.24
2022-11-19T10:30:41.879Z,49.64
2022-11-19T10:33:13.176Z,49.22
2022-11-19T10:35:42.943Z,48.96
2022-11-19T10:38:12.942Z,48.91
2022-11-19T10:40:41.854Z,49.06
2022-11-19T10:43:19.471Z,49.44
2022-11-19T10:45:52.044Z,49.76
2022-11-19T10:48:21.129Z,49.56
2022-11-19T10:50:48.762Z,49.73
2022-11-19T10:53:17.491Z,49.57
2022-11-19T10:55:51.371Z,49.83
2022-11-19T10:58:24.046Z,50.17
2022-11-19T11:00:54.129Z,49.63
2022-11-19T11:03:24.163Z,50.30
2022-11-19T11:05:59.002Z,50.28
2022-11-19T11:08:26.866Z,49.60
2022-11-19T11:10:54.630Z,49.69
2022-11-19T11:13:48.024Z,50.19
2022-11-19T11:16:19.288Z,49.92
2022-11-19T11:18:46.998Z,49.85
2022-11-19T11:21:21.640Z,50.08
2022-11-19T11:23:51.420Z,49.80
2022-11-19T11:26:20.771Z,49.62
2022-11-19T11:28:55.252Z,50.01
2022-11-19T11:31:31.238Z,50.47
2022-11-19T11:33:58.976Z,50.93
2022-11-19T11:36:27.723Z,50.61
2022-11-19T11:38:56.434Z,50.94
2022-11-19T11:44:18.970Z,52.00
2022-11-19T11:46:49.034Z,52.12
2022-11-19T11:49:26.135Z,52.23
2022-11-19T11:52:08.252Z,52.63
2022-11-19T11:54:36.009Z,52.71
2022-11-19T11:57:09.846Z,52.99
2022-11-19T11:59:37.510Z,53.14
2022-11-19T12:02:07.206Z,53.17
2022-11-19T12:04:34.876Z,53.34
2022-11-19T12:07:08.593Z,53.59
2022-11-19T12:09:41.172Z,53.68
2022-11-19T12:12:10.728Z,53.75
2022-11-19T12:14:40.309Z,53.92
2022-11-19T12:17:24.772Z,53.90
2022-11-19T12:20:08.588Z,54.06
2022-11-19T12:22:41.945Z,53.97
2022-11-19T12:25:22.448Z,54.59
2022-11-19T12:27:58.307Z,54.03
2022-11-19T12:30:30.905Z,53.86
2022-11-19T12:33:08.871Z,54.09
2022-11-19T12:35:42.066Z,53.97
2022-11-19T12:38:18.173Z,54.23
2022-11-19T12:40:49.278Z,54.51
2022-11-19T12:43:26.246Z,54.56
2022-11-19T12:45:58.452Z,54.69
2022-11-19T12:48:48.636Z,54.71
2022-11-19T12:51:20.606Z,54.87
2022-11-19T12:53:56.232Z,54.95
2022-11-19T12:56:31.879Z,55.35
2022-11-19T12:59:02.434Z,55.42
2022-11-19T13:01:32.173Z,55.36
2022-11-19T13:04:03.344Z,55.32
2022-11-19T13:06:33.739Z,55.22
2022-11-19T13:09:02.363Z,50.78
2022-11-19T13:11:36.251Z,52.25
2022-11-19T13:14:05.796Z,53.31
2022-11-19T13:16:33.880Z,53.69
2022-11-19T13:19:09.431Z,54.30
2022-11-19T13:21:40.112Z,54.80
2022-11-19T13:24:11.904Z,54.91
2022-11-19T13:26:39.478Z,55.62
2022-11-19T13:29:21.933Z,56.55
2022-11-19T13:31:52.345Z,56.41
2022-11-19T13:34:23.635Z,57.10
2022-11-19T13:36:58.583Z,57.04
2022-11-19T13:39:29.490Z,57.25
2022-11-19T13:42:14.483Z,58.30
2022-11-19T13:44:42.260Z,58.05
2022-11-19T13:47:11.837Z,58.66
2022-11-19T13:49:42.008Z,56.78
2022-11-19T13:52:10.669Z,55.33
2022-11-19T13:54:39.404Z,56.92
2022-11-19T13:57:07.625Z,57.45
2022-11-19T13:59:37.647Z,58.08
2022-11-19T14:02:20.663Z,58.45
2022-11-19T14:05:01.305Z,58.76
2022-11-19T14:07:55.680Z,58.68
2022-11-19T14:10:25.593Z,58.40
2022-11-19T14:13:17.097Z,58.36
2022-11-19T14:16:08.443Z,58.19
2022-11-19T14:18:56.099Z,58.11
2022-11-19T14:22:00.603Z,58.03
2022-11-19T14:25:12.808Z,58.01
2022-11-19T14:27:40.564Z,58.16
2022-11-19T14:30:10.852Z,58.01
2022-11-19T14:32:46.944Z,57.99
2022-11-19T14:35:21.607Z,57.95
2022-11-19T14:37:51.918Z,58.11
2022-11-19T14:40:21.101Z,58.33
2022-11-19T14:43:43.688Z,58.10
2022-11-19T14:46:32.468Z,58.14
2022-11-19T14:49:19.636Z,58.00
2022-11-19T14:51:51.927Z,58.01
2022-11-19T14:54:31.247Z,58.00
2022-11-19T14:57:07.658Z,58.26
2022-11-19T14:59:37.257Z,58.28
2022-11-19T15:02:11.667Z,58.49
2022-11-19T15:04:40.819Z,56.60
2022-11-19T15:07:10.515Z,57.67
2022-11-19T15:10:18.363Z,58.21
2022-11-19T15:12:50.369Z,56.73
2022-11-19T15:15:39.156Z,56.13
2022-11-19T15:18:14.849Z,54.92
2022-11-19T15:20:54.226Z,54.12
2022-11-19T15:23:23.765Z,54.54
2022-11-19T15:25:56.376Z,54.94
2022-11-19T15:28:30.294Z,54.92
2022-11-19T15:31:09.618Z,54.85
2022-11-19T15:34:05.645Z,54.60
2022-11-19T15:36:34.669Z,54.49
2022-11-19T15:39:04.275Z,54.42
2022-11-19T15:41:36.284Z,54.44
2022-11-19T15:44:06.859Z,54.32
2022-11-19T15:46:36.465Z,54.11
2022-11-19T15:49:06.280Z,54.19
2022-11-19T15:51:40.961Z,54.03
2022-11-19T15:54:12.008Z,54.07
2022-11-19T15:56:50.603Z,53.78
2022-11-19T15:59:18.767Z,53.84
2022-11-19T16:01:47.206Z,53.85
2022-11-19T16:04:16.050Z,53.54
2022-11-19T16:06:44.670Z,53.32
2022-11-19T16:09:17.460Z,53.46
2022-11-19T16:12:04.307Z,53.84
2022-11-19T16:14:49.679Z,53.88
2022-11-19T16:17:39.721Z,54.17
2022-11-19T16:20:21.789Z,54.19
2022-11-19T16:22:52.181Z,54.09
2022-11-19T16:25:23.550Z,54.31
2022-11-19T16:27:52.513Z,54.23
2022-11-19T16:30:20.262Z,54.28
2022-11-19T16:32:48.065Z,54.47
2022-11-19T16:35:21.451Z,54.55
2022-11-19T16:37:49.399Z,54.64
2022-11-19T16:40:17.258Z,54.68
2022-11-19T16:42:43.958Z,54.75
2022-11-19T16:45:17.976Z,54.75
2022-11-19T16:47:52.084Z,54.72
2022-11-19T16:50:27.018Z,54.89
2022-11-19T16:52:54.672Z,55.12
2022-11-19T16:55:46.423Z,54.97
2022-11-19T16:58:16.188Z,55.09
2022-11-19T17:00:48.398Z,55.20
2022-11-19T17:03:27.528Z,55.16
2022-11-19T17:05:55.184Z,55.33
2022-11-19T17:08:23.813Z,55.13
2022-11-19T17:11:11.378Z,55.17
2022-11-19T17:13:38.953Z,55.18
2022-11-19T17:16:18.540Z,55.45
2022-11-19T17:18:46.122Z,55.33
2022-11-19T17:21:22.904Z,55.37
2022-11-19T17:23:51.344Z,55.27
2022-11-19T17:26:20.632Z,55.30
2022-11-19T17:28:49.509Z,55.10
2022-11-19T17:31:19.413Z,55.31
2022-11-19T17:33:54.213Z,55.70
2022-11-19T17:36:22.171Z,55.04
2022-11-19T17:38:49.730Z,55.01
2022-11-19T17:41:38.283Z,54.94
2022-11-19T17:44:23.704Z,54.72
2022-11-19T17:46:53.104Z,54.57
2022-11-19T17:49:20.915Z,54.53
2022-11-19T17:51:48.440Z,54.32
2022-11-19T17:54:16.050Z,54.39
2022-11-19T17:56:43.768Z,53.68
2022-11-19T17:59:11.300Z,53.91
2022-11-19T18:01:38.919Z,54.53
2022-11-19T18:04:07.892Z,53.57
2022-11-19T18:06:37.256Z,53.62
2022-11-19T18:09:04.954Z,53.77
2022-11-19T18:11:32.531Z,53.42
2022-11-19T18:14:01.739Z,53.50
2022-11-19T18:16:30.139Z,53.29
2022-11-19T18:18:57.740Z,53.40
2022-11-19T18:21:27.458Z,53.19
2022-11-19T18:23:55.019Z,53.25
2022-11-19T18:26:23.392Z,53.06
2022-11-19T18:28:51.041Z,52.95
2022-11-19T18:31:19.867Z,53.14
2022-11-19T18:33:48.281Z,52.99
2022-11-19T18:36:16.175Z,53.01
2022-11-19T18:38:45.314Z,53.38
2022-11-19T18:41:13.373Z,53.05
2022-11-19T18:43:58.302Z,53.38
2022-11-19T18:46:25.972Z,52.91
2022-11-19T18:48:54.556Z,53.00
2022-11-19T18:51:23.951Z,53.14
2022-11-19T18:53:52.832Z,52.98
2022-11-19T18:56:20.432Z,52.91
2022-11-19T18:58:48.067Z,52.81
2022-11-19T19:01:17.010Z,53.27
2022-11-19T19:03:44.766Z,52.86
2022-11-19T19:06:12.576Z,52.74
2022-11-19T19:08:40.303Z,52.73
2022-11-19T19:11:26.700Z,52.80
2022-11-19T19:13:54.483Z,52.88
2022-11-19T19:16:22.119Z,53.18
2022-11-19T19:18:49.703Z,52.74
2022-11-19T19:21:18.167Z,52.94
2022-11-19T19:23:45.771Z,52.92
2022-11-19T19:26:16.003Z,53.06
2022-11-19T19:28:43.767Z,52.96
2022-11-19T19:31:15.040Z,52.64
2022-11-19T19:33:46.133Z,53.09
2022-11-19T19:36:13.905Z,52.61
2022-11-19T19:38:41.641Z,52.64
2022-11-19T19:41:11.131Z,52.52
2022-11-19T19:43:40.123Z,52.58
2022-11-19T19:46:09.403Z,52.47
2022-11-19T19:48:36.984Z,52.36
2022-11-19T19:51:05.036Z,52.49
2022-11-19T19:53:32.615Z,52.43
2022-11-19T19:56:03.662Z,52.75
2022-11-19T19:58:31.272Z,52.74
2022-11-19T20:01:05.866Z,52.38
2022-11-19T20:03:34.776Z,52.54
2022-11-19T20:06:02.760Z,52.64
2022-11-19T20:08:30.599Z,52.42
2022-11-19T20:11:02.121Z,52.52
2022-11-19T20:13:31.867Z,52.42
2022-11-19T20:16:00.424Z,52.49
2022-11-19T20:18:29.386Z,52.34
2022-11-19T20:20:59.138Z,52.70
2022-11-19T20:23:26.873Z,52.52
2022-11-19T20:25:57.709Z,52.40
2022-11-19T20:28:25.419Z,52.38
2022-11-19T20:30:53.201Z,52.43
2022-11-19T20:33:20.888Z,52.31
2022-11-19T20:35:53.539Z,52.31
2022-11-19T20:38:21.238Z,52.54
2022-11-19T20:40:55.956Z,52.46
2022-11-19T20:43:55.670Z,52.50
2022-11-19T20:46:23.339Z,52.37
2022-11-19T20:48:50.983Z,52.56
2022-11-19T20:51:21.415Z,52.65
2022-11-19T20:53:48.979Z,52.65
2022-11-19T20:56:16.553Z,52.24
2022-11-19T20:58:44.091Z,52.22
2022-11-19T21:01:11.689Z,50.08
2022-11-19T21:03:39.367Z,49.87
2022-11-19T21:06:07.677Z,50.81
2022-11-19T21:08:36.727Z,51.40
2022-11-19T21:11:05.610Z,51.71
2022-11-19T21:13:33.277Z,51.74
2022-11-19T21:16:00.909Z,51.74
2022-11-19T21:18:31.227Z,51.45
2022-11-19T21:21:03.076Z,51.72
2022-11-19T21:23:30.988Z,51.63
2022-11-19T21:26:02.812Z,51.73
2022-11-19T21:28:30.398Z,52.00
2022-11-19T21:30:57.969Z,52.08
2022-11-19T21:33:27.004Z,51.87
2022-11-19T21:35:54.899Z,52.14
2022-11-19T21:38:22.498Z,51.95
2022-11-19T21:40:50.955Z,52.27
2022-11-19T21:43:19.992Z,52.15
2022-11-19T21:45:48.843Z,52.32
2022-11-19T21:48:16.754Z,51.97
2022-11-19T21:50:44.334Z,52.44
2022-11-19T21:53:12.321Z,52.38
2022-11-19T21:55:40.402Z,52.56
2022-11-19T21:58:07.998Z,52.50
2022-11-19T22:00:36.960Z,52.77
2022-11-19T22:03:04.662Z,53.03
2022-11-19T22:05:32.266Z,52.90
2022-11-19T22:08:00.008Z,52.88
2022-11-19T22:10:27.720Z,53.11
2022-11-19T22:12:55.300Z,53.20
2022-11-19T22:15:22.970Z,53.34
2022-11-19T22:17:51.927Z,53.60
2022-11-19T22:20:19.703Z,53.82
2022-11-19T22:22:47.423Z,54.02
2022-11-19T22:25:15.548Z,54.04
2022-11-19T22:27:43.159Z,54.47
2022-11-19T22:30:11.994Z,54.71
2022-11-19T22:32:39.552Z,54.69
2022-11-19T22:35:09.460Z,54.91
2022-11-19T22:37:37.120Z,55.03
2022-11-19T22:40:05.127Z,55.03
2022-11-19T22:42:32.706Z,55.07
2022-11-19T22:45:00.308Z,55.52
2022-11-19T22:47:27.902Z,55.39
2022-11-19T22:49:55.726Z,55.31
2022-11-19T22:52:24.657Z,55.52
2022-11-19T22:54:52.294Z,55.58
2022-11-19T22:57:19.884Z,55.72
2022-11-19T22:59:47.478Z,55.56
2022-11-19T23:02:15.068Z,55.70
2022-11-19T23:04:42.686Z,55.79
2022-11-19T23:07:10.345Z,55.93
2022-11-19T23:09:39.440Z,55.82
2022-11-19T23:12:24.906Z,55.97
2022-11-19T23:14:52.485Z,56.01
2022-11-19T23:17:20.154Z,55.81
2022-11-19T23:19:47.799Z,56.13
2022-11-19T23:22:16.472Z,56.22
2022-11-19T23:24:45.504Z,56.16
2022-11-19T23:27:16.734Z,56.18
2022-11-19T23:29:48.408Z,56.20
2022-11-19T23:32:16.011Z,56.30
2022-11-19T23:34:43.586Z,56.37
2022-11-19T23:37:11.150Z,56.35
2022-11-19T23:39:38.689Z,56.26
2022-11-19T23:42:07.637Z,56.35
2022-11-19T23:44:35.214Z,56.38
2022-11-19T23:47:03.335Z,56.29
2022-11-19T23:49:30.899Z,56.44
2022-11-19T23:51:58.436Z,56.32
2022-11-19T23:54:25.999Z,56.38
2022-11-19T23:56:53.655Z,56.42
2022-11-19T23:59:25.645Z,56.54
